createdAt,value
2018-07-13T00:01:33.587Z,81.07
2018-07-13T00:04:02.494Z,80.93
2018-07-13T00:06:31.324Z,80.74
2018-07-13T00:09:00.255Z,81.16
2018-07-13T00:11:29.067Z,81.49
2018-07-13T00:14:15.452Z,81.38
2018-07-13T00:16:45.128Z,81.44
2018-07-13T00:19:14.778Z,81.15
2018-07-13T00:21:43.650Z,80.76
2018-07-13T00:24:12.592Z,80.58
2018-07-13T00:26:41.504Z,80.76
2018-07-13T00:29:10.761Z,81.61
2018-07-13T00:31:40.728Z,81.53
2018-07-13T00:34:09.580Z,80.58
2018-07-13T00:36:38.498Z,81.07
2018-07-13T00:39:11.414Z,81.72
2018-07-13T00:41:40.336Z,82.24
2018-07-13T00:44:09.285Z,81.30
2018-07-13T00:46:38.135Z,82.22
2018-07-13T00:49:06.966Z,81.95
2018-07-13T00:51:35.865Z,81.97
2018-07-13T00:54:04.801Z,81.66
2018-07-13T00:56:33.693Z,81.25
2018-07-13T00:59:02.594Z,81.30
2018-07-13T01:01:31.419Z,81.61
2018-07-13T01:04:00.235Z,81.31
2018-07-13T01:06:29.023Z,81.82
2018-07-13T01:08:57.661Z,81.90
2018-07-13T01:11:26.520Z,82.55
2018-07-13T01:13:55.314Z,83.00
2018-07-13T01:16:24.455Z,83.06
2018-07-13T01:18:53.355Z,82.31
2018-07-13T01:21:22.187Z,82.94
2018-07-13T01:23:50.813Z,82.55
2018-07-13T01:26:19.653Z,82.97
2018-07-13T01:28:48.273Z,83.01
2018-07-13T01:31:17.043Z,83.24
2018-07-13T01:33:45.802Z,82.95
2018-07-13T01:36:14.560Z,82.74
2018-07-13T01:38:43.435Z,82.17
2018-07-13T01:41:12.472Z,82.95
2018-07-13T01:43:41.382Z,82.59
2018-07-13T01:46:10.004Z,82.16
2018-07-13T01:48:38.860Z,81.70
2018-07-13T01:51:07.530Z,82.53
2018-07-13T01:53:36.382Z,81.82
2018-07-13T01:56:05.363Z,81.92
2018-07-13T01:58:34.214Z,82.73
2018-07-13T02:01:04.127Z,82.12
2018-07-13T02:03:56.240Z,82.54
2018-07-13T02:06:25.089Z,82.50
2018-07-13T02:08:53.921Z,82.48
2018-07-13T02:11:22.702Z,81.69
2018-07-13T02:13:51.990Z,82.60
2018-07-13T02:16:20.816Z,82.49
2018-07-13T02:18:49.728Z,82.21
2018-07-13T02:21:18.921Z,83.24
2018-07-13T02:23:47.765Z,83.10
2018-07-13T02:26:16.566Z,83.20
2018-07-13T02:28:45.388Z,83.12
2018-07-13T02:31:14.255Z,82.72
2018-07-13T02:33:43.130Z,82.57
2018-07-13T02:36:11.889Z,83.56
2018-07-13T02:38:41.011Z,83.17
2018-07-13T02:41:09.860Z,83.12
2018-07-13T02:43:38.691Z,83.75
2018-07-13T02:46:07.561Z,82.75
2018-07-13T02:48:36.174Z,83.31
2018-07-13T02:51:05.132Z,82.82
2018-07-13T02:53:33.838Z,82.44
2018-07-13T02:56:02.731Z,82.06
2018-07-13T02:58:31.534Z,82.07
2018-07-13T03:01:00.424Z,82.42
2018-07-13T03:03:29.251Z,82.53
2018-07-13T03:05:58.116Z,81.70
2018-07-13T03:08:26.983Z,81.74
2018-07-13T03:10:55.813Z,81.92
2018-07-13T03:13:24.843Z,82.24
2018-07-13T03:15:53.499Z,81.88
2018-07-13T03:18:22.287Z,81.52
2018-07-13T03:20:51.183Z,81.97
2018-07-13T03:23:19.973Z,82.28
2018-07-13T03:25:48.847Z,81.80
2018-07-13T03:28:17.657Z,82.18
2018-07-13T03:30:46.504Z,83.47
2018-07-13T03:33:15.352Z,82.71
2018-07-13T03:35:44.147Z,82.31
2018-07-13T03:38:12.975Z,82.76
2018-07-13T03:40:41.805Z,81.99
2018-07-13T03:43:10.648Z,82.15
2018-07-13T03:45:45.628Z,82.04
2018-07-13T03:48:14.483Z,82.42
2018-07-13T03:50:43.275Z,81.72
2018-07-13T03:53:12.232Z,81.69
2018-07-13T03:55:41.108Z,82.75
2018-07-13T03:58:10.024Z,82.61
2018-07-13T04:00:38.733Z,82.39
2018-07-13T04:03:07.426Z,82.53
2018-07-13T04:05:36.242Z,81.65
2018-07-13T04:08:05.129Z,82.24
2018-07-13T04:10:33.939Z,82.19
2018-07-13T04:13:02.809Z,81.76
2018-07-13T04:15:31.691Z,82.26
2018-07-13T04:18:00.584Z,82.36
2018-07-13T04:20:29.555Z,82.38
2018-07-13T04:22:58.354Z,82.13
2018-07-13T04:25:27.352Z,81.67
2018-07-13T04:27:56.398Z,81.50
2018-07-13T04:30:25.348Z,81.36
2018-07-13T04:32:54.251Z,81.62
2018-07-13T04:35:23.057Z,81.63
2018-07-13T04:37:51.963Z,81.49
2018-07-13T04:40:20.821Z,81.49
2018-07-13T04:42:49.637Z,80.92
2018-07-13T04:45:24.964Z,81.61
2018-07-13T04:47:53.975Z,80.82
2018-07-13T04:50:22.928Z,81.53
2018-07-13T04:52:52.392Z,81.67
2018-07-13T04:55:21.572Z,81.37
2018-07-13T04:57:50.597Z,80.61
2018-07-13T05:00:19.726Z,80.97
2018-07-13T05:02:48.991Z,81.25
2018-07-13T05:05:18.037Z,81.27
2018-07-13T05:07:46.856Z,81.81
2018-07-13T05:10:15.875Z,81.61
2018-07-13T05:12:44.703Z,81.63
2018-07-13T05:15:13.703Z,81.59
2018-07-13T05:17:42.599Z,81.37
2018-07-13T05:20:11.578Z,81.55
2018-07-13T05:22:40.567Z,82.14
2018-07-13T05:25:09.619Z,81.41
2018-07-13T05:27:38.771Z,80.03
2018-07-13T05:30:08.158Z,81.17
2018-07-13T05:32:37.248Z,79.96
2018-07-13T05:35:06.015Z,79.51
2018-07-13T05:37:34.979Z,79.72
2018-07-13T05:40:04.605Z,79.59
2018-07-13T05:42:33.836Z,79.40
2018-07-13T05:45:02.980Z,79.71
2018-07-13T05:47:32.028Z,78.72
2018-07-13T05:50:01.088Z,78.56
2018-07-13T05:52:30.141Z,78.22
2018-07-13T05:54:59.568Z,78.45
2018-07-13T05:57:28.653Z,77.53
2018-07-13T05:59:57.650Z,78.14
2018-07-13T06:02:26.664Z,77.33
2018-07-13T06:04:55.697Z,76.36
2018-07-13T06:07:24.846Z,77.44
2018-07-13T06:09:53.857Z,76.26
2018-07-13T06:12:22.891Z,76.44
2018-07-13T06:14:51.712Z,76.02
2018-07-13T06:17:20.540Z,76.07
2018-07-13T06:19:49.395Z,76.20
2018-07-13T06:22:18.291Z,76.00
2018-07-13T06:24:47.084Z,76.28
2018-07-13T06:27:15.892Z,76.86
2018-07-13T06:29:44.784Z,76.60
2018-07-13T06:32:13.602Z,76.57
2018-07-13T06:34:42.553Z,77.58
2018-07-13T06:37:11.587Z,77.11
2018-07-13T06:39:40.643Z,77.93
2018-07-13T06:42:09.566Z,77.92
2018-07-13T06:44:38.646Z,76.89
2018-07-13T06:47:07.374Z,76.44
2018-07-13T06:49:36.260Z,76.82
2018-07-13T06:52:05.573Z,77.04
2018-07-13T06:54:34.516Z,77.21
2018-07-13T06:57:03.365Z,77.28
2018-07-13T06:59:32.296Z,76.96
2018-07-13T07:02:01.493Z,78.37
2018-07-13T07:04:32.520Z,77.45
2018-07-13T07:07:08.491Z,77.48
2018-07-13T07:09:38.199Z,77.31
2018-07-13T07:12:49.672Z,77.59
2018-07-13T07:15:18.526Z,76.89
2018-07-13T07:17:47.645Z,77.51
2018-07-13T07:20:16.776Z,77.20
2018-07-13T07:22:46.145Z,76.46
2018-07-13T07:25:15.127Z,76.12
2018-07-13T07:27:44.465Z,74.91
2018-07-13T07:30:13.770Z,75.37
2018-07-13T07:32:43.331Z,75.30
2018-07-13T07:35:12.159Z,75.16
2018-07-13T07:37:41.220Z,75.60
2018-07-13T07:40:10.447Z,75.50
2018-07-13T07:42:39.219Z,76.50
2018-07-13T07:45:08.221Z,75.46
2018-07-13T07:47:37.123Z,74.93
2018-07-13T07:50:05.976Z,75.24
2018-07-13T07:52:34.812Z,75.89
2018-07-13T07:55:03.595Z,76.35
2018-07-13T07:57:32.620Z,74.86
2018-07-13T08:00:01.475Z,74.26
2018-07-13T08:02:30.307Z,76.19
2018-07-13T08:04:59.100Z,74.99
2018-07-13T08:07:27.989Z,74.02
2018-07-13T08:09:56.772Z,73.80
2018-07-13T08:12:25.622Z,73.93
2018-07-13T08:14:54.493Z,74.47
2018-07-13T08:17:23.680Z,74.40
2018-07-13T08:19:52.631Z,72.69
2018-07-13T08:22:34.351Z,72.91
2018-07-13T08:25:06.501Z,72.89
2018-07-13T08:27:39.456Z,73.66
2018-07-13T08:30:50.477Z,73.90
2018-07-13T08:33:19.394Z,73.56
2018-07-13T08:35:48.180Z,72.82
2018-07-13T08:38:17.004Z,72.57
2018-07-13T08:40:45.968Z,73.82
2018-07-13T08:43:14.896Z,74.27
2018-07-13T08:45:49.889Z,73.02
2018-07-13T08:48:18.814Z,72.66
2018-07-13T08:50:47.824Z,72.72
2018-07-13T08:53:17.016Z,72.19
2018-07-13T08:55:46.114Z,71.55
2018-07-13T08:58:16.833Z,70.45
2018-07-13T09:00:45.823Z,70.98
2018-07-13T09:03:14.696Z,71.64
2018-07-13T09:05:43.712Z,71.12
2018-07-13T09:08:12.596Z,71.18
2018-07-13T09:10:41.614Z,70.67
2018-07-13T09:13:10.468Z,71.37
2018-07-13T09:15:39.371Z,70.35
2018-07-13T09:18:08.251Z,70.82
2018-07-13T09:20:37.249Z,70.19
2018-07-13T09:23:06.201Z,69.92
2018-07-13T09:25:34.918Z,69.68
2018-07-13T09:28:03.731Z,69.06
2018-07-13T09:30:32.659Z,69.94
2018-07-13T09:33:01.666Z,68.33
2018-07-13T09:35:30.572Z,68.01
2018-07-13T09:37:59.467Z,67.54
2018-07-13T09:40:28.428Z,67.12
2018-07-13T09:42:59.015Z,66.86
2018-07-13T09:45:33.935Z,66.73
2018-07-13T09:48:03.126Z,66.56
2018-07-13T09:50:32.375Z,65.95
2018-07-13T09:53:01.324Z,65.82
2018-07-13T09:55:30.398Z,66.22
2018-07-13T09:57:59.064Z,66.76
2018-07-13T10:00:33.628Z,66.69
2018-07-13T10:03:02.516Z,66.41
2018-07-13T10:05:31.433Z,65.80
2018-07-13T10:08:00.413Z,64.76
2018-07-13T10:10:29.611Z,64.66
2018-07-13T10:12:58.510Z,65.05
2018-07-13T10:15:27.348Z,64.98
2018-07-13T10:17:56.268Z,64.35
2018-07-13T10:20:25.061Z,64.56
2018-07-13T10:22:54.115Z,65.27
2018-07-13T10:25:26.417Z,66.07
2018-07-13T10:27:55.643Z,64.52
2018-07-13T10:30:24.471Z,61.58
2018-07-13T10:32:53.493Z,61.02
2018-07-13T10:35:22.490Z,61.08
2018-07-13T10:37:51.716Z,62.29
2018-07-13T10:40:20.593Z,61.92
2018-07-13T10:42:49.500Z,60.33
2018-07-13T10:45:18.304Z,58.08
2018-07-13T10:47:47.201Z,59.73
2018-07-13T10:50:15.956Z,58.92
2018-07-13T10:52:44.724Z,60.42
2018-07-13T10:55:13.635Z,59.59
2018-07-13T10:57:42.419Z,57.48
2018-07-13T11:00:11.252Z,56.42
2018-07-13T11:02:40.059Z,56.32
2018-07-13T11:05:08.935Z,55.68
2018-07-13T11:07:37.915Z,53.72
2018-07-13T11:10:06.847Z,54.08
2018-07-13T11:12:35.629Z,54.99
2018-07-13T11:15:04.702Z,55.85
2018-07-13T11:17:33.472Z,54.52
2018-07-13T11:20:02.374Z,52.91
2018-07-13T11:22:31.206Z,54.20
2018-07-13T11:25:00.047Z,53.49
2018-07-13T11:27:28.861Z,53.66
2018-07-13T11:29:57.675Z,52.75
2018-07-13T11:32:26.329Z,50.89
2018-07-13T11:34:55.161Z,51.46
2018-07-13T11:37:24.021Z,53.17
2018-07-13T11:39:52.780Z,54.24
2018-07-13T11:42:21.502Z,53.57
2018-07-13T11:44:50.327Z,52.94
2018-07-13T11:47:19.480Z,52.24
2018-07-13T11:49:48.272Z,54.55
2018-07-13T11:52:17.182Z,54.13
2018-07-13T11:54:45.910Z,55.13
2018-07-13T11:57:14.821Z,55.11
2018-07-13T11:59:43.611Z,56.10
2018-07-13T12:02:12.271Z,55.71
2018-07-13T12:04:41.046Z,54.89
2018-07-13T12:07:09.867Z,54.02
2018-07-13T12:09:38.705Z,53.58
2018-07-13T12:12:07.827Z,52.31
2018-07-13T12:14:36.643Z,53.34
2018-07-13T12:17:05.585Z,53.23
2018-07-13T12:19:34.367Z,53.57
2018-07-13T12:22:03.119Z,52.68
2018-07-13T12:24:31.742Z,53.34
2018-07-13T12:27:00.622Z,54.65
2018-07-13T12:29:29.440Z,54.28
2018-07-13T12:31:58.221Z,54.00
2018-07-13T12:34:26.933Z,54.84
2018-07-13T12:36:55.726Z,55.19
2018-07-13T12:39:24.545Z,54.38
2018-07-13T12:41:53.158Z,53.58
2018-07-13T12:44:22.016Z,53.89
2018-07-13T12:46:50.875Z,53.31
2018-07-13T12:49:19.709Z,54.15
2018-07-13T12:51:48.323Z,55.39
2018-07-13T12:54:17.250Z,55.84
2018-07-13T12:56:46.029Z,55.55
2018-07-13T12:59:15.028Z,55.15
2018-07-13T13:01:43.904Z,56.23
2018-07-13T13:04:12.744Z,56.11
2018-07-13T13:06:41.531Z,55.40
2018-07-13T13:09:10.345Z,55.17
2018-07-13T13:11:39.203Z,55.05
2018-07-13T13:14:08.080Z,55.55
2018-07-13T13:16:36.877Z,54.93
2018-07-13T13:19:05.773Z,55.94
2018-07-13T13:21:34.598Z,56.24
2018-07-13T13:24:03.489Z,55.80
2018-07-13T13:26:32.299Z,56.37
2018-07-13T13:29:01.085Z,56.49
2018-07-13T13:31:30.178Z,56.48
2018-07-13T13:33:58.968Z,56.11
2018-07-13T13:36:27.828Z,57.87
2018-07-13T13:38:56.632Z,57.95
2018-07-13T13:41:25.277Z,57.33
2018-07-13T13:43:54.487Z,57.35
2018-07-13T13:46:23.348Z,58.80
2018-07-13T13:48:52.040Z,57.64
2018-07-13T13:51:20.883Z,57.87
2018-07-13T13:53:49.556Z,57.97
2018-07-13T13:56:18.397Z,58.46
2018-07-13T13:58:47.204Z,57.32
2018-07-13T14:01:15.884Z,57.34
2018-07-13T14:03:44.643Z,58.10
2018-07-13T14:06:13.491Z,57.94
2018-07-13T14:08:42.286Z,58.73
2018-07-13T14:11:11.095Z,57.90
2018-07-13T14:13:39.931Z,57.85
2018-07-13T14:16:08.743Z,58.89
2018-07-13T14:18:37.518Z,60.07
2018-07-13T14:21:06.925Z,60.71
2018-07-13T14:23:35.685Z,60.11
2018-07-13T14:26:04.847Z,59.90
2018-07-13T14:28:33.716Z,60.37
2018-07-13T14:31:02.507Z,59.56
2018-07-13T14:33:31.391Z,58.39
2018-07-13T14:36:00.165Z,58.93
2018-07-13T14:38:29.060Z,58.74
2018-07-13T14:40:57.864Z,58.83
2018-07-13T14:43:26.780Z,57.88
2018-07-13T14:45:57.162Z,58.52
2018-07-13T14:48:26.005Z,60.19
2018-07-13T14:50:54.997Z,59.31
2018-07-13T14:53:23.978Z,59.43
2018-07-13T14:55:52.852Z,59.02
2018-07-13T14:58:21.716Z,59.48
2018-07-13T15:00:50.491Z,60.02
2018-07-13T15:03:19.407Z,59.27
2018-07-13T15:05:48.290Z,58.30
2018-07-13T15:08:17.050Z,59.91
2018-07-13T15:10:45.728Z,60.82
2018-07-13T15:13:14.580Z,59.82
2018-07-13T15:15:43.458Z,59.39
2018-07-13T15:18:12.321Z,60.33
2018-07-13T15:20:41.161Z,61.33
2018-07-13T15:23:10.000Z,62.03
2018-07-13T15:25:38.899Z,61.59
2018-07-13T15:28:07.786Z,60.87
2018-07-13T15:30:36.939Z,60.23
2018-07-13T15:33:05.785Z,59.65
2018-07-13T15:35:34.644Z,59.67
2018-07-13T15:38:03.465Z,59.03
2018-07-13T15:40:32.371Z,58.48
2018-07-13T15:43:01.133Z,58.74
2018-07-13T15:45:36.026Z,59.18
2018-07-13T15:48:04.836Z,58.23
2018-07-13T15:50:33.760Z,59.98
2018-07-13T15:53:02.538Z,59.23
2018-07-13T15:55:36.862Z,59.99
2018-07-13T15:58:05.746Z,60.45
2018-07-13T16:00:34.648Z,60.60
2018-07-13T16:03:03.461Z,59.56
2018-07-13T16:05:32.336Z,59.50
2018-07-13T16:08:01.063Z,59.34
2018-07-13T16:10:29.931Z,59.71
2018-07-13T16:12:58.799Z,59.99
2018-07-13T16:15:28.001Z,60.79
2018-07-13T16:17:56.621Z,60.57
2018-07-13T16:20:25.462Z,60.24
2018-07-13T16:22:54.198Z,59.75
2018-07-13T16:25:23.168Z,60.32
2018-07-13T16:27:51.985Z,59.49
2018-07-13T16:30:20.813Z,60.63
2018-07-13T16:32:49.653Z,61.13
2018-07-13T16:35:18.432Z,61.37
2018-07-13T16:37:47.162Z,61.52
2018-07-13T16:40:15.980Z,61.62
2018-07-13T16:42:44.800Z,61.78
2018-07-13T16:45:13.712Z,62.44
2018-07-13T16:47:42.454Z,62.25
2018-07-13T16:50:11.339Z,62.16
2018-07-13T16:52:40.172Z,62.69
2018-07-13T16:55:09.053Z,62.39
2018-07-13T16:57:37.865Z,62.57
2018-07-13T17:00:06.736Z,62.89
2018-07-13T17:02:35.649Z,63.46
2018-07-13T17:05:04.525Z,64.08
2018-07-13T17:07:33.391Z,64.35
2018-07-13T17:10:02.303Z,63.92
2018-07-13T17:12:31.151Z,63.90
2018-07-13T17:15:00.025Z,63.76
2018-07-13T17:17:28.928Z,63.51
2018-07-13T17:19:57.682Z,64.86
2018-07-13T17:22:26.467Z,64.44
2018-07-13T17:24:55.293Z,65.19
2018-07-13T17:27:24.408Z,64.96
2018-07-13T17:29:53.334Z,65.63
2018-07-13T17:32:22.090Z,65.91
2018-07-13T17:34:51.211Z,66.24
2018-07-13T17:37:20.267Z,65.83
2018-07-13T17:39:49.138Z,65.40
2018-07-13T17:42:17.923Z,65.27
2018-07-13T17:44:46.756Z,65.52
2018-07-13T17:47:16.344Z,66.12
2018-07-13T17:49:45.261Z,65.46
2018-07-13T17:52:16.811Z,65.49
2018-07-13T17:54:46.027Z,65.55
2018-07-13T17:57:15.008Z,65.15
2018-07-13T17:59:43.827Z,64.45
2018-07-13T18:02:12.635Z,65.58
2018-07-13T18:04:41.357Z,65.38
2018-07-13T18:07:10.184Z,65.68
2018-07-13T18:09:38.826Z,66.75
2018-07-13T18:12:07.671Z,66.88
2018-07-13T18:14:37.160Z,66.84
2018-07-13T18:17:06.092Z,67.56
2018-07-13T18:19:35.584Z,67.59
2018-07-13T18:22:04.434Z,67.32
2018-07-13T18:24:33.212Z,67.12
2018-07-13T18:27:02.695Z,67.65
2018-07-13T18:29:31.351Z,68.06
2018-07-13T18:32:00.537Z,68.53
2018-07-13T18:34:29.429Z,68.23
2018-07-13T18:36:59.044Z,68.29
2018-07-13T18:39:27.677Z,68.74
2018-07-13T18:41:56.435Z,68.75
2018-07-13T18:44:25.274Z,68.76
2018-07-13T18:46:54.035Z,68.66
2018-07-13T18:49:22.794Z,68.33
2018-07-13T18:51:51.618Z,68.14
2018-07-13T18:54:20.334Z,69.42
2018-07-13T18:56:49.227Z,69.29
2018-07-13T18:59:17.986Z,69.31
2018-07-13T19:01:46.812Z,69.80
2018-07-13T19:04:15.570Z,69.96
2018-07-13T19:06:44.417Z,70.03
2018-07-13T19:09:13.470Z,70.72
2018-07-13T19:11:43.146Z,71.06
2018-07-13T19:14:11.952Z,71.18
2018-07-13T19:16:40.952Z,71.26
2018-07-13T19:19:10.059Z,71.13
2018-07-13T19:21:39.391Z,71.60
2018-07-13T19:24:08.143Z,71.74
2018-07-13T19:26:36.963Z,71.87
2018-07-13T19:29:06.067Z,71.62
2018-07-13T19:31:35.008Z,71.46
2018-07-13T19:34:04.320Z,71.56
2018-07-13T19:36:33.275Z,71.71
2018-07-13T19:39:01.922Z,71.45
2018-07-13T19:41:30.962Z,72.54
2018-07-13T19:43:59.962Z,71.28
2018-07-13T19:46:28.790Z,72.26
2018-07-13T19:48:57.613Z,72.19
2018-07-13T19:51:26.397Z,72.94
2018-07-13T19:53:56.392Z,72.47
2018-07-13T19:56:25.270Z,72.19
2018-07-13T19:58:54.072Z,71.46
2018-07-13T20:01:22.866Z,72.28
2018-07-13T20:03:51.546Z,71.89
2018-07-13T20:06:20.369Z,72.02
2018-07-13T20:08:49.265Z,71.87
2018-07-13T20:11:18.101Z,71.95
2018-07-13T20:13:47.146Z,71.71
2018-07-13T20:16:16.113Z,71.82
2018-07-13T20:18:44.941Z,71.36
2018-07-13T20:21:13.816Z,71.28
2018-07-13T20:23:42.719Z,71.36
2018-07-13T20:26:11.524Z,70.77
2018-07-13T20:28:40.384Z,70.63
2018-07-13T20:31:09.168Z,70.45
2018-07-13T20:33:37.982Z,71.19
2018-07-13T20:36:06.904Z,70.87
2018-07-13T20:38:35.676Z,71.29
2018-07-13T20:41:04.313Z,71.33
2018-07-13T20:43:33.111Z,70.80
2018-07-13T20:46:02.011Z,71.52
2018-07-13T20:48:30.808Z,71.70
2018-07-13T20:50:59.619Z,71.63
2018-07-13T20:53:28.247Z,71.07
2018-07-13T20:55:57.160Z,71.37
2018-07-13T20:58:26.824Z,71.40
2018-07-13T21:00:55.637Z,71.85
2018-07-13T21:03:24.401Z,71.64
2018-07-13T21:05:53.276Z,71.72
2018-07-13T21:08:22.073Z,71.70
2018-07-13T21:10:50.976Z,71.50
2018-07-13T21:13:19.792Z,71.60
2018-07-13T21:15:48.669Z,71.36
2018-07-13T21:18:17.431Z,71.90
2018-07-13T21:20:46.136Z,71.43
2018-07-13T21:23:15.000Z,71.85
2018-07-13T21:25:43.612Z,71.88
2018-07-13T21:28:12.431Z,71.33
2018-07-13T21:30:41.213Z,71.89
2018-07-13T21:33:10.060Z,71.54
2018-07-13T21:35:38.937Z,71.77
2018-07-13T21:38:07.776Z,71.54
2018-07-13T21:40:36.555Z,70.87
2018-07-13T21:43:05.436Z,71.17
2018-07-13T21:45:40.588Z,71.05
2018-07-13T21:48:09.472Z,70.67
2018-07-13T21:50:38.255Z,70.67
2018-07-13T21:53:07.002Z,70.90
2018-07-13T21:55:35.815Z,71.23
2018-07-13T21:58:04.897Z,71.49
2018-07-13T22:00:33.732Z,71.10
2018-07-13T22:03:02.641Z,71.01
2018-07-13T22:05:31.404Z,71.23
2018-07-13T22:08:00.279Z,71.34
2018-07-13T22:10:29.135Z,71.63
2018-07-13T22:12:58.090Z,71.61
2018-07-13T22:15:26.928Z,71.32
2018-07-13T22:17:55.720Z,71.21
2018-07-13T22:20:24.559Z,72.38
2018-07-13T22:22:53.338Z,72.24
2018-07-13T22:25:22.364Z,71.49
2018-07-13T22:27:51.130Z,71.72
2018-07-13T22:30:19.967Z,71.23
2018-07-13T22:32:48.770Z,71.57
2018-07-13T22:35:17.635Z,71.18
2018-07-13T22:37:46.311Z,71.46
2018-07-13T22:40:15.139Z,71.25
2018-07-13T22:42:43.952Z,71.87
2018-07-13T22:45:12.651Z,71.35
2018-07-13T22:47:41.388Z,71.44
2018-07-13T22:50:10.277Z,70.89
2018-07-13T22:52:39.065Z,71.25
2018-07-13T22:55:08.265Z,71.58
2018-07-13T22:57:37.021Z,71.59
2018-07-13T23:00:06.496Z,71.33
2018-07-13T23:02:35.360Z,72.53
2018-07-13T23:05:04.516Z,71.35
2018-07-13T23:07:33.279Z,71.42
2018-07-13T23:10:02.078Z,71.22
2018-07-13T23:12:30.892Z,70.96
2018-07-13T23:14:59.764Z,72.23
2018-07-13T23:17:28.415Z,71.38
2018-07-13T23:19:57.282Z,70.78
2018-07-13T23:22:26.080Z,70.63
2018-07-13T23:24:54.905Z,71.77
2018-07-13T23:27:23.969Z,71.45
2018-07-13T23:29:52.767Z,71.86
2018-07-13T23:32:21.598Z,72.53
2018-07-13T23:34:50.218Z,71.26
2018-07-13T23:37:19.069Z,71.81
2018-07-13T23:39:47.944Z,72.49
2018-07-13T23:42:16.837Z,71.86
2018-07-13T23:44:45.625Z,71.67
2018-07-13T23:47:14.450Z,71.81
2018-07-13T23:49:43.203Z,71.90
2018-07-13T23:52:12.133Z,71.83
2018-07-13T23:54:41.339Z,72.31
2018-07-13T23:57:10.188Z,72.75
2018-07-13T23:59:39.274Z,73.39
